createdAt,value
2023-08-25T00:01:51.377Z,6.66
2023-08-25T00:04:18.762Z,6.59
2023-08-25T00:06:45.485Z,6.39
2023-08-25T00:09:14.193Z,6.52
2023-08-25T00:11:40.905Z,6.30
2023-08-25T00:14:09.124Z,6.42
2023-08-25T00:16:37.224Z,6.20
2023-08-25T00:19:03.966Z,6.48
2023-08-25T00:21:33.493Z,6.63
2023-08-25T00:24:01.732Z,6.27
2023-08-25T00:26:30.172Z,6.12
2023-08-25T00:28:57.847Z,6.22
2023-08-25T00:31:25.426Z,6.39
2023-08-25T00:33:52.779Z,6.09
2023-08-25T00:36:19.922Z,6.31
2023-08-25T00:38:46.882Z,6.29
2023-08-25T00:41:13.640Z,5.95
2023-08-25T00:43:40.587Z,6.37
2023-08-25T00:46:08.397Z,6.25
2023-08-25T00:48:35.505Z,5.95
2023-08-25T00:51:02.684Z,5.91
2023-08-25T00:53:29.723Z,6.01
2023-08-25T00:55:56.758Z,6.29
2023-08-25T00:58:24.842Z,6.60
2023-08-25T01:00:52.051Z,6.27
2023-08-25T01:03:19.313Z,6.14
2023-08-25T01:05:49.083Z,5.96
2023-08-25T01:08:17.260Z,6.14
2023-08-25T01:11:13.532Z,6.23
2023-08-25T01:14:02.363Z,6.22
2023-08-25T01:16:33.540Z,6.12
2023-08-25T01:19:00.851Z,5.98
2023-08-25T01:21:30.900Z,6.02
2023-08-25T01:24:13.602Z,6.50
2023-08-25T01:26:40.328Z,6.25
2023-08-25T01:29:10.040Z,6.35
2023-08-25T01:31:36.863Z,6.32
2023-08-25T01:34:03.691Z,6.32
2023-08-25T01:36:35.982Z,6.11
2023-08-25T01:39:04.935Z,6.07
2023-08-25T01:41:44.415Z,6.54
2023-08-25T01:44:15.930Z,6.45
2023-08-25T01:46:47.853Z,6.53
2023-08-25T01:49:17.686Z,6.21
2023-08-25T01:51:44.514Z,6.19
2023-08-25T01:54:12.781Z,6.22
2023-08-25T01:56:41.231Z,6.44
2023-08-25T01:59:08.310Z,6.62
2023-08-25T02:01:35.053Z,6.44
2023-08-25T02:04:01.851Z,6.33
2023-08-25T02:06:31.690Z,5.92
2023-08-25T02:08:58.426Z,6.18
2023-08-25T02:11:25.156Z,6.06
2023-08-25T02:13:53.170Z,5.88
2023-08-25T02:16:19.991Z,6.23
2023-08-25T02:18:48.253Z,5.99
2023-08-25T02:21:15.299Z,5.74
2023-08-25T02:23:42.014Z,5.99
2023-08-25T02:26:09.103Z,5.71
2023-08-25T02:28:36.373Z,5.72
2023-08-25T02:31:03.680Z,5.90
2023-08-25T02:33:31.289Z,6.10
2023-08-25T02:35:58.357Z,6.04
2023-08-25T02:38:25.336Z,5.71
2023-08-25T02:41:03.219Z,6.41
2023-08-25T02:43:30.321Z,6.07
2023-08-25T02:45:59.626Z,6.19
2023-08-25T02:48:26.444Z,6.38
2023-08-25T02:50:56.138Z,6.23
2023-08-25T02:53:22.872Z,6.19
2023-08-25T02:55:52.378Z,6.04
2023-08-25T02:58:19.093Z,6.29
2023-08-25T03:00:45.839Z,6.48
2023-08-25T03:03:13.745Z,6.54
2023-08-25T03:05:40.638Z,6.31
2023-08-25T03:08:08.904Z,6.21
2023-08-25T03:10:36.359Z,6.40
2023-08-25T03:13:06.083Z,6.36
2023-08-25T03:15:33.774Z,6.62
2023-08-25T03:18:01.238Z,6.24
2023-08-25T03:20:28.104Z,6.23
2023-08-25T03:22:55.277Z,6.59
2023-08-25T03:25:24.390Z,6.35
2023-08-25T03:27:53.986Z,6.71
2023-08-25T03:30:21.298Z,6.61
2023-08-25T03:32:48.048Z,6.20
2023-08-25T03:35:17.984Z,6.68
2023-08-25T03:37:45.001Z,6.53
2023-08-25T03:40:14.474Z,6.51
2023-08-25T03:42:41.625Z,6.76
2023-08-25T03:45:11.470Z,6.57
2023-08-25T03:47:38.614Z,6.60
2023-08-25T03:50:05.932Z,6.56
2023-08-25T03:52:32.979Z,6.44
2023-08-25T03:55:11.830Z,6.96
2023-08-25T03:57:59.729Z,7.18
2023-08-25T04:00:26.502Z,6.90
2023-08-25T04:02:53.557Z,6.82
2023-08-25T04:05:20.655Z,6.94
2023-08-25T04:07:47.391Z,7.04
2023-08-25T04:10:15.755Z,6.90
2023-08-25T04:12:42.895Z,6.83
2023-08-25T04:15:12.480Z,7.17
2023-08-25T04:17:39.797Z,6.68
2023-08-25T04:20:08.441Z,7.07
2023-08-25T04:22:36.348Z,7.13
2023-08-25T04:25:03.102Z,7.04
2023-08-25T04:27:30.210Z,7.05
2023-08-25T04:29:58.212Z,6.92
2023-08-25T04:32:25.735Z,6.93
2023-08-25T04:34:52.760Z,7.05
2023-08-25T04:37:20.017Z,7.20
2023-08-25T04:39:47.337Z,6.86
2023-08-25T04:42:14.078Z,7.19
2023-08-25T04:44:41.378Z,7.14
2023-08-25T04:47:08.438Z,6.73
2023-08-25T04:49:38.180Z,6.77
2023-08-25T04:52:05.618Z,6.97
2023-08-25T04:54:32.428Z,7.29
2023-08-25T04:56:59.568Z,7.00
2023-08-25T04:59:29.280Z,6.71
2023-08-25T05:01:57.258Z,6.79
2023-08-25T05:04:25.247Z,7.00
2023-08-25T05:06:54.744Z,6.91
2023-08-25T05:09:22.240Z,7.44
2023-08-25T05:11:49.010Z,7.30
2023-08-25T05:14:15.733Z,6.85
2023-08-25T05:16:43.324Z,6.61
2023-08-25T05:19:10.141Z,6.65
2023-08-25T05:21:36.946Z,8.30
2023-08-25T05:27:26.874Z,6.61
2023-08-25T05:29:53.957Z,6.57
2023-08-25T05:32:20.702Z,6.31
2023-08-25T05:34:47.430Z,6.60
2023-08-25T05:37:27.341Z,6.10
2023-08-25T05:39:54.076Z,6.27
2023-08-25T05:42:20.830Z,6.47
2023-08-25T05:44:47.722Z,6.31
2023-08-25T05:47:14.536Z,6.42
2023-08-25T05:49:41.312Z,6.84
2023-08-25T05:52:08.044Z,6.54
2023-08-25T05:54:34.787Z,6.18
2023-08-25T05:57:01.531Z,6.02
2023-08-25T05:59:28.335Z,6.77
2023-08-25T06:01:55.167Z,6.63
2023-08-25T06:04:21.959Z,6.23
2023-08-25T06:06:48.703Z,6.28
2023-08-25T06:09:15.437Z,6.35
2023-08-25T06:11:42.196Z,6.13
2023-08-25T06:14:08.920Z,6.71
2023-08-25T06:16:38.632Z,6.20
2023-08-25T06:19:05.821Z,6.05
2023-08-25T06:21:32.809Z,5.84
2023-08-25T06:24:01.494Z,6.28
2023-08-25T06:26:28.401Z,6.28
2023-08-25T06:28:55.364Z,5.90
2023-08-25T06:35:15.412Z,6.52
2023-08-25T06:37:42.154Z,6.35
2023-08-25T06:40:10.231Z,6.26
2023-08-25T06:42:36.977Z,6.45
2023-08-25T06:45:05.847Z,6.44
2023-08-25T06:47:32.606Z,6.46
2023-08-25T06:50:00.957Z,6.47
2023-08-25T06:52:27.706Z,6.29
2023-08-25T06:54:54.497Z,6.41
2023-08-25T06:57:21.521Z,6.48
2023-08-25T06:59:49.468Z,6.25
2023-08-25T07:02:16.192Z,6.31
2023-08-25T07:04:55.574Z,6.45
2023-08-25T07:07:37.801Z,6.08
2023-08-25T07:10:04.907Z,6.30
2023-08-25T07:12:32.160Z,6.46
2023-08-25T07:14:58.967Z,6.15
2023-08-25T07:17:27.217Z,5.91
2023-08-25T07:19:53.986Z,5.97
2023-08-25T07:22:20.717Z,6.04
2023-08-25T07:24:50.507Z,5.93
2023-08-25T07:27:18.457Z,6.20
2023-08-25T07:29:45.209Z,6.25
2023-08-25T07:32:13.903Z,6.08
2023-08-25T07:34:44.418Z,6.25
2023-08-25T07:37:11.698Z,5.91
2023-08-25T07:39:41.143Z,6.12
2023-08-25T07:42:08.862Z,6.25
2023-08-25T07:44:37.009Z,6.48
2023-08-25T07:47:03.965Z,6.58
2023-08-25T07:49:30.684Z,6.24
2023-08-25T07:51:58.168Z,6.35
2023-08-25T07:54:25.310Z,6.13
2023-08-25T07:56:52.039Z,6.36
2023-08-25T07:59:19.954Z,6.34
2023-08-25T08:01:46.940Z,6.32
2023-08-25T08:04:14.060Z,6.51
2023-08-25T08:06:41.250Z,6.24
2023-08-25T08:09:08.244Z,6.51
2023-08-25T08:11:35.262Z,6.67
2023-08-25T08:14:02.093Z,6.84
2023-08-25T08:16:29.185Z,6.76
2023-08-25T08:18:56.574Z,6.63
2023-08-25T08:21:23.797Z,6.46
2023-08-25T08:23:51.553Z,6.38
2023-08-25T08:26:18.431Z,6.86
2023-08-25T08:28:45.508Z,6.75
2023-08-25T08:31:12.341Z,6.63
2023-08-25T08:33:39.366Z,7.11
2023-08-25T08:36:06.395Z,6.65
2023-08-25T08:38:33.179Z,6.72
2023-08-25T08:41:03.089Z,6.60
2023-08-25T08:43:29.861Z,6.41
2023-08-25T08:45:57.053Z,6.56
2023-08-25T08:48:23.788Z,6.38
2023-08-25T08:50:51.405Z,6.78
2023-08-25T08:53:18.134Z,6.39
2023-08-25T08:55:45.126Z,6.68
2023-08-25T08:58:12.080Z,6.79
2023-08-25T09:00:38.857Z,6.73
2023-08-25T09:03:09.187Z,6.67
2023-08-25T09:05:36.234Z,6.96
2023-08-25T09:08:06.289Z,6.95
2023-08-25T09:10:33.502Z,6.45
2023-08-25T09:13:00.333Z,6.85
2023-08-25T09:15:34.099Z,6.50
2023-08-25T09:18:02.294Z,6.71
2023-08-25T09:20:30.633Z,6.99
2023-08-25T09:22:57.941Z,6.83
2023-08-25T09:25:28.061Z,6.45
2023-08-25T09:28:06.645Z,6.68
2023-08-25T09:30:36.995Z,6.85
2023-08-25T09:33:09.187Z,6.67
2023-08-25T09:35:36.023Z,6.85
2023-08-25T09:38:03.177Z,6.57
2023-08-25T09:40:29.968Z,6.45
2023-08-25T09:43:00.701Z,6.67
2023-08-25T09:45:29.930Z,6.20
2023-08-25T09:48:14.138Z,6.57
2023-08-25T09:50:42.168Z,7.00
2023-08-25T09:53:10.701Z,6.55
2023-08-25T09:55:38.024Z,6.45
2023-08-25T09:58:10.274Z,6.47
2023-08-25T10:00:40.984Z,5.43
2023-08-25T10:03:09.188Z,4.88
2023-08-25T10:05:36.929Z,4.56
2023-08-25T10:08:05.328Z,4.61
2023-08-25T10:10:32.221Z,4.05
2023-08-25T10:12:58.966Z,3.83
2023-08-25T10:15:27.822Z,3.80
2023-08-25T10:17:55.453Z,3.63
2023-08-25T10:20:23.122Z,3.44
2023-08-25T10:22:51.650Z,3.96
2023-08-25T10:25:19.113Z,4.10
2023-08-25T10:27:45.929Z,3.82
2023-08-25T10:30:13.765Z,4.15
2023-08-25T10:33:12.441Z,4.13
2023-08-25T10:35:43.035Z,4.36
2023-08-25T10:38:33.198Z,4.11
2023-08-25T10:41:11.160Z,4.03
2023-08-25T10:43:37.910Z,4.31
2023-08-25T10:46:08.568Z,4.28
2023-08-25T10:48:37.391Z,4.24
2023-08-25T10:51:18.953Z,4.19
2023-08-25T10:53:53.258Z,4.32
2023-08-25T10:56:22.556Z,4.24
2023-08-25T10:58:58.229Z,3.99
2023-08-25T11:01:43.332Z,3.77
2023-08-25T11:04:48.341Z,3.67
2023-08-25T11:07:17.512Z,3.39
2023-08-25T11:09:48.410Z,3.34
2023-08-25T11:12:16.925Z,3.40
2023-08-25T11:14:43.852Z,3.63
2023-08-25T11:17:10.745Z,3.57
2023-08-25T11:19:38.599Z,4.21
2023-08-25T11:22:12.886Z,3.72
2023-08-25T11:24:39.958Z,3.82
2023-08-25T11:27:07.506Z,3.82
2023-08-25T11:29:34.495Z,3.82
2023-08-25T11:32:01.839Z,4.03
2023-08-25T11:34:32.415Z,4.29
2023-08-25T11:36:59.486Z,4.17
2023-08-25T11:40:02.205Z,3.77
2023-08-25T11:42:29.384Z,4.17
2023-08-25T11:44:56.180Z,4.25
2023-08-25T11:48:01.891Z,4.40
2023-08-25T11:50:29.302Z,4.37
2023-08-25T11:52:59.721Z,4.10
2023-08-25T11:55:34.705Z,4.54
2023-08-25T11:58:08.344Z,4.74
2023-08-25T12:00:38.664Z,5.04
2023-08-25T12:03:06.159Z,5.15
2023-08-25T12:05:37.271Z,5.20
2023-08-25T12:08:04.269Z,5.08
2023-08-25T12:10:34.619Z,5.26
2023-08-25T12:13:01.341Z,5.36
2023-08-25T12:15:28.763Z,5.43
2023-08-25T12:17:55.757Z,5.47
2023-08-25T12:20:22.715Z,5.57
2023-08-25T12:22:53.397Z,5.97
2023-08-25T12:25:20.147Z,5.95
2023-08-25T12:27:46.954Z,5.76
2023-08-25T12:30:14.302Z,5.76
2023-08-25T12:32:41.151Z,5.93
2023-08-25T12:35:08.147Z,5.92
2023-08-25T12:37:34.874Z,5.53
2023-08-25T12:40:05.046Z,6.09
2023-08-25T12:42:32.141Z,5.98
2023-08-25T12:44:58.881Z,5.72
2023-08-25T12:47:25.674Z,6.00
2023-08-25T12:53:34.567Z,5.44
2023-08-25T12:56:01.349Z,5.53
2023-08-25T12:58:30.381Z,5.83
2023-08-25T13:00:58.330Z,5.49
2023-08-25T13:03:26.379Z,5.32
2023-08-25T13:05:53.170Z,5.83
2023-08-25T13:08:19.896Z,5.75
2023-08-25T13:14:12.821Z,5.62
2023-08-25T13:16:39.625Z,5.90
2023-08-25T13:19:06.417Z,5.88
2023-08-25T13:21:33.172Z,5.58
2023-08-25T13:24:09.346Z,5.13
2023-08-25T13:26:36.831Z,4.80
2023-08-25T13:29:04.996Z,4.71
2023-08-25T13:31:32.196Z,4.02
2023-08-25T13:33:58.971Z,5.05
2023-08-25T13:36:25.719Z,4.42
2023-08-25T13:38:52.511Z,4.58
2023-08-25T13:41:19.725Z,4.26
2023-08-25T13:43:46.571Z,4.39
2023-08-25T13:46:13.323Z,4.08
2023-08-25T13:48:40.144Z,4.39
2023-08-25T13:51:09.937Z,4.21
2023-08-25T13:53:43.115Z,4.20
2023-08-25T13:56:10.310Z,3.96
2023-08-25T13:58:37.622Z,4.09
2023-08-25T14:01:05.831Z,3.92
2023-08-25T14:03:32.723Z,4.00
2023-08-25T14:06:05.504Z,4.27
2023-08-25T14:08:35.015Z,4.16
2023-08-25T14:11:01.768Z,3.96
2023-08-25T14:13:28.849Z,3.95
2023-08-25T14:19:21.786Z,4.20
2023-08-25T14:21:48.546Z,3.92
2023-08-25T14:24:15.316Z,4.12
2023-08-25T14:26:42.426Z,4.09
2023-08-25T14:29:09.234Z,3.97
2023-08-25T14:31:36.329Z,4.02
2023-08-25T14:34:03.679Z,3.98
2023-08-25T14:36:30.839Z,4.08
2023-08-25T14:38:57.923Z,3.97
2023-08-25T14:41:24.686Z,4.58
2023-08-25T14:43:51.452Z,4.89
2023-08-25T14:46:18.237Z,4.87
2023-08-25T14:48:44.996Z,4.88
2023-08-25T14:51:11.720Z,4.69
2023-08-25T14:53:38.456Z,4.68
2023-08-25T14:56:21.586Z,4.99
2023-08-25T14:58:48.327Z,4.81
2023-08-25T15:01:15.064Z,4.81
2023-08-25T15:04:20.952Z,5.19
2023-08-25T15:06:47.693Z,5.08
2023-08-25T15:09:14.420Z,4.74
2023-08-25T15:11:41.138Z,5.19
2023-08-25T15:14:07.862Z,4.86
2023-08-25T15:16:34.602Z,4.97
2023-08-25T15:19:01.340Z,5.15
2023-08-25T15:21:28.063Z,5.01
2023-08-25T15:23:54.855Z,5.08
2023-08-25T15:26:21.662Z,4.90
2023-08-25T15:28:48.498Z,5.41
2023-08-25T15:31:15.326Z,5.28
2023-08-25T15:33:42.269Z,5.07
2023-08-25T15:36:10.149Z,5.42
2023-08-25T15:38:36.969Z,5.23
2023-08-25T15:41:07.887Z,4.32
2023-08-25T15:43:35.185Z,4.60
2023-08-25T15:46:02.020Z,4.69
2023-08-25T15:48:29.396Z,4.35
2023-08-25T15:50:56.343Z,4.36
2023-08-25T15:53:24.183Z,4.30
2023-08-25T15:55:51.291Z,4.33
2023-08-25T15:58:18.419Z,4.36
2023-08-25T16:00:45.594Z,4.36
2023-08-25T16:03:12.569Z,4.53
2023-08-25T16:05:40.098Z,4.94
2023-08-25T16:08:06.923Z,4.46
2023-08-25T16:10:33.737Z,4.34
2023-08-25T16:13:00.529Z,4.53
2023-08-25T16:15:27.463Z,4.71
2023-08-25T16:17:54.219Z,4.63
2023-08-25T16:20:20.997Z,4.54
2023-08-25T16:22:47.721Z,4.42
2023-08-25T16:25:15.856Z,4.48
2023-08-25T16:27:46.345Z,4.31
2023-08-25T16:30:13.365Z,4.75
2023-08-25T16:32:40.178Z,4.52
2023-08-25T16:35:07.089Z,4.79
2023-08-25T16:37:34.215Z,4.55
2023-08-25T16:40:01.191Z,4.31
2023-08-25T16:42:27.922Z,4.40
2023-08-25T16:44:54.689Z,4.50
2023-08-25T16:47:22.504Z,4.81
2023-08-25T16:49:49.254Z,4.66
2023-08-25T16:52:16.389Z,4.77
2023-08-25T16:54:43.130Z,4.48
2023-08-25T16:57:09.849Z,4.56
2023-08-25T16:59:37.432Z,4.86
2023-08-25T17:02:04.498Z,4.57
2023-08-25T17:04:31.257Z,4.66
2023-08-25T17:06:57.990Z,4.65
2023-08-25T17:09:24.746Z,4.42
2023-08-25T17:11:51.502Z,4.55
2023-08-25T17:14:18.294Z,4.65
2023-08-25T17:16:45.418Z,4.86
2023-08-25T17:19:12.226Z,4.67
2023-08-25T17:21:40.478Z,5.12
2023-08-25T17:24:07.390Z,4.96
2023-08-25T17:26:34.455Z,4.75
2023-08-25T17:29:01.209Z,4.89
2023-08-25T17:31:29.236Z,5.07
2023-08-25T17:33:55.978Z,5.09
2023-08-25T17:36:24.519Z,4.76
2023-08-25T17:38:51.609Z,4.99
2023-08-25T17:41:18.343Z,4.97
2023-08-25T17:43:45.073Z,5.18
2023-08-25T17:46:11.914Z,5.51
2023-08-25T17:48:38.729Z,5.11
2023-08-25T17:51:05.896Z,5.20
2023-08-25T17:53:32.618Z,4.97
2023-08-25T17:55:59.363Z,5.08
2023-08-25T17:58:26.082Z,4.80
2023-08-25T18:01:02.977Z,5.07
2023-08-25T18:03:29.885Z,5.24
2023-08-25T18:05:56.973Z,5.34
2023-08-25T18:08:24.717Z,5.10
2023-08-25T18:10:51.513Z,5.57
2023-08-25T18:13:18.380Z,5.49
2023-08-25T18:15:53.586Z,5.50
2023-08-25T18:18:20.511Z,5.84
2023-08-25T18:20:59.551Z,5.34
2023-08-25T18:23:28.168Z,5.26
2023-08-25T18:25:55.206Z,5.46
2023-08-25T18:28:23.735Z,5.41
2023-08-25T18:30:57.978Z,5.46
2023-08-25T18:33:24.708Z,5.25
2023-08-25T18:35:51.432Z,5.42
2023-08-25T18:38:18.592Z,5.69
2023-08-25T18:40:45.745Z,5.71
2023-08-25T18:43:12.465Z,5.79
2023-08-25T18:45:39.259Z,5.89
2023-08-25T18:48:06.499Z,5.73
2023-08-25T18:50:33.288Z,5.83
2023-08-25T18:53:00.358Z,5.39
2023-08-25T18:55:27.212Z,5.39
2023-08-25T18:57:53.932Z,5.33
2023-08-25T19:00:21.883Z,5.38
2023-08-25T19:02:49.215Z,5.40
2023-08-25T19:05:16.010Z,5.23
2023-08-25T19:07:44.314Z,5.02
2023-08-25T19:10:11.333Z,5.10
2023-08-25T19:12:38.441Z,5.49
2023-08-25T19:15:05.475Z,5.73
2023-08-25T19:17:32.247Z,13.45
2023-08-25T19:19:58.988Z,6.56
2023-08-25T19:22:25.750Z,5.47
2023-08-25T19:24:52.522Z,5.70
2023-08-25T19:27:19.230Z,5.62
2023-08-25T19:29:45.971Z,5.68
2023-08-25T19:32:12.703Z,5.77
2023-08-25T19:34:39.438Z,5.45
2023-08-25T19:37:06.176Z,5.75
2023-08-25T19:39:32.932Z,5.65
2023-08-25T19:42:02.628Z,5.60
2023-08-25T19:44:29.376Z,5.49
2023-08-25T19:46:56.153Z,5.94
2023-08-25T19:49:24.276Z,5.56
2023-08-25T19:51:50.996Z,5.99
2023-08-25T19:54:17.739Z,5.87
2023-08-25T19:56:44.576Z,5.96
2023-08-25T19:59:11.358Z,6.33
2023-08-25T20:01:38.106Z,6.08
2023-08-25T20:04:05.873Z,6.42
2023-08-25T20:06:32.591Z,6.17
2023-08-25T20:08:59.372Z,6.18
2023-08-25T20:11:26.121Z,6.20
2023-08-25T20:13:53.177Z,6.06
2023-08-25T20:16:20.136Z,6.03
2023-08-25T20:18:46.887Z,7.41
2023-08-25T20:21:13.616Z,5.89
2023-08-25T20:23:40.582Z,6.21
2023-08-25T20:26:07.351Z,6.06
2023-08-25T20:28:37.949Z,5.95
2023-08-25T20:31:05.080Z,6.25
2023-08-25T20:33:32.013Z,5.95
2023-08-25T20:35:58.745Z,6.56
2023-08-25T20:38:25.991Z,6.10
2023-08-25T20:40:56.364Z,6.37
2023-08-25T20:43:23.577Z,6.92
2023-08-25T20:45:52.604Z,7.37
2023-08-25T20:48:19.454Z,7.48
2023-08-25T20:50:49.282Z,7.04
2023-08-25T20:53:16.237Z,6.96
2023-08-25T20:55:43.350Z,6.83
2023-08-25T20:58:10.130Z,7.03
2023-08-25T21:00:37.211Z,6.57
2023-08-25T21:03:04.230Z,6.77
2023-08-25T21:05:31.376Z,6.54
2023-08-25T21:07:58.187Z,6.32
2023-08-25T21:10:24.973Z,6.60
2023-08-25T21:12:52.059Z,6.62
2023-08-25T21:15:18.778Z,6.57
2023-08-25T21:17:45.601Z,6.51
2023-08-25T21:20:12.488Z,6.91
2023-08-25T21:22:39.247Z,7.14
2023-08-25T21:25:06.170Z,6.60
2023-08-25T21:27:32.943Z,6.43
2023-08-25T21:29:59.741Z,6.52
2023-08-25T21:32:26.561Z,6.10
2023-08-25T21:34:53.325Z,6.29
2023-08-25T21:37:20.471Z,6.66
2023-08-25T21:39:48.369Z,6.27
2023-08-25T21:42:15.462Z,6.52
2023-08-25T21:45:01.878Z,6.60
2023-08-25T21:47:28.721Z,6.22
2023-08-25T21:49:55.480Z,6.40
2023-08-25T21:52:23.330Z,6.06
2023-08-25T21:54:50.053Z,6.40
2023-08-25T21:57:17.934Z,6.29
2023-08-25T21:59:45.083Z,6.43
2023-08-25T22:02:11.863Z,6.30
2023-08-25T22:04:39.680Z,6.07
2023-08-25T22:07:06.404Z,6.41
2023-08-25T22:09:33.641Z,6.63
2023-08-25T22:12:00.738Z,7.01
2023-08-25T22:14:27.602Z,6.94
2023-08-25T22:16:54.357Z,7.00
2023-08-25T22:19:21.462Z,6.55
2023-08-25T22:21:48.202Z,6.88
2023-08-25T22:24:14.954Z,6.36
2023-08-25T22:26:41.657Z,6.34
2023-08-25T22:29:10.514Z,6.46
2023-08-25T22:31:37.347Z,6.54
2023-08-25T22:36:34.588Z,6.52
2023-08-25T22:39:02.501Z,6.75
2023-08-25T22:41:29.214Z,6.58
2023-08-25T22:43:55.969Z,5.83
2023-08-25T22:46:24.234Z,6.19
2023-08-25T22:48:51.014Z,6.16
2023-08-25T22:51:20.650Z,6.34
2023-08-25T22:53:47.365Z,6.19
2023-08-25T22:56:14.141Z,6.00
2023-08-25T22:58:41.148Z,5.45
2023-08-25T23:01:08.170Z,5.65
2023-08-25T23:03:35.396Z,5.62
2023-08-25T23:06:02.823Z,5.74
2023-08-25T23:08:29.609Z,7.90
2023-08-25T23:10:56.338Z,5.10
2023-08-25T23:13:23.088Z,5.21
2023-08-25T23:15:49.855Z,5.50
2023-08-25T23:18:17.944Z,5.25
2023-08-25T23:20:44.738Z,5.10
2023-08-25T23:23:11.474Z,5.20
2023-08-25T23:25:39.219Z,5.08
2023-08-25T23:28:06.061Z,5.13
2023-08-25T23:30:34.601Z,5.22
2023-08-25T23:33:03.504Z,4.99
2023-08-25T23:35:34.932Z,5.20
2023-08-25T23:38:03.135Z,4.99
2023-08-25T23:40:29.875Z,5.03
2023-08-25T23:42:56.612Z,5.04
2023-08-25T23:45:23.480Z,5.23
2023-08-25T23:47:50.340Z,4.90
2023-08-25T23:50:17.153Z,4.96
2023-08-25T23:52:43.893Z,5.89
2023-08-25T23:55:10.606Z,4.92
2023-08-25T23:57:37.368Z,5.23
